sensor_id;sensor_type;location;lat;lon;timestamp;P1;durP1;ratioP1;P2;durP2;ratioP2
62957;SDS011;49056;48.352;10.926;2023-03-01T00:04:47;5.75;;;2.33;;
62957;SDS011;49056;48.352;10.926;2023-03-01T00:10:07;4.62;;;1.80;;
62957;SDS011;49056;48.352;10.926;2023-03-01T00:15:28;3.90;;;2.40;;
62957;SDS011;49056;48.352;10.926;2023-03-01T00:20:55;3.83;;;2.10;;
62957;SDS011;49056;48.352;10.926;2023-03-01T00:26:16;3.70;;;2.17;;
62957;SDS011;49056;48.352;10.926;2023-03-01T00:31:36;5.93;;;2.80;;
62957;SDS011;49056;48.352;10.926;2023-03-01T00:36:57;5.00;;;2.33;;
62957;SDS011;49056;48.352;10.926;2023-03-01T00:42:24;4.50;;;2.35;;
62957;SDS011;49056;48.352;10.926;2023-03-01T00:47:45;4.85;;;2.22;;
62957;SDS011;49056;48.352;10.926;2023-03-01T00:53:05;5.00;;;2.58;;
62957;SDS011;49056;48.352;10.926;2023-03-01T00:58:26;3.87;;;2.47;;
62957;SDS011;49056;48.352;10.926;2023-03-01T01:09:07;5.32;;;2.42;;
62957;SDS011;49056;48.352;10.926;2023-03-01T01:14:27;4.50;;;2.78;;
62957;SDS011;49056;48.352;10.926;2023-03-01T01:19:47;5.77;;;3.47;;
62957;SDS011;49056;48.352;10.926;2023-03-01T01:25:08;4.30;;;2.70;;
62957;SDS011;49056;48.352;10.926;2023-03-01T01:30:28;4.53;;;2.75;;
62957;SDS011;49056;48.352;10.926;2023-03-01T01:35:48;5.32;;;2.47;;
62957;SDS011;49056;48.352;10.926;2023-03-01T01:41:10;4.37;;;2.67;;
62957;SDS011;49056;48.352;10.926;2023-03-01T01:46:32;3.85;;;2.55;;
62957;SDS011;49056;48.352;10.926;2023-03-01T01:57:27;5.57;;;2.87;;
62957;SDS011;49056;48.352;10.926;2023-03-01T02:02:50;3.37;;;2.40;;
62957;SDS011;49056;48.352;10.926;2023-03-01T02:08:12;4.65;;;2.12;;
62957;SDS011;49056;48.352;10.926;2023-03-01T02:13:33;4.57;;;2.95;;
62957;SDS011;49056;48.352;10.926;2023-03-01T02:18:54;6.30;;;2.87;;
62957;SDS011;49056;48.352;10.926;2023-03-01T02:29:38;3.17;;;2.35;;
62957;SDS011;49056;48.352;10.926;2023-03-01T02:34:58;4.70;;;2.10;;
62957;SDS011;49056;48.352;10.926;2023-03-01T02:40:19;4.32;;;2.47;;
62957;SDS011;49056;48.352;10.926;2023-03-01T02:45:47;5.00;;;2.83;;
62957;SDS011;49056;48.352;10.926;2023-03-01T02:56:28;3.60;;;2.20;;
62957;SDS011;49056;48.352;10.926;2023-03-01T03:01:49;5.22;;;2.67;;
62957;SDS011;49056;48.352;10.926;2023-03-01T03:07:10;6.75;;;3.75;;
62957;SDS011;49056;48.352;10.926;2023-03-01T03:12:30;3.50;;;2.17;;
62957;SDS011;49056;48.352;10.926;2023-03-01T03:17:51;5.22;;;2.30;;
62957;SDS011;49056;48.352;10.926;2023-03-01T03:23:11;5.28;;;2.53;;
62957;SDS011;49056;48.352;10.926;2023-03-01T03:28:32;4.28;;;2.08;;
62957;SDS011;49056;48.352;10.926;2023-03-01T03:33:53;4.32;;;3.00;;
62957;SDS011;49056;48.352;10.926;2023-03-01T03:39:14;4.70;;;2.53;;
62957;SDS011;49056;48.352;10.926;2023-03-01T03:44:34;3.93;;;2.03;;
62957;SDS011;49056;48.352;10.926;2023-03-01T03:49:54;4.50;;;2.72;;
62957;SDS011;49056;48.352;10.926;2023-03-01T03:55:15;6.50;;;3.53;;
62957;SDS011;49056;48.352;10.926;2023-03-01T04:00:43;5.35;;;2.55;;
62957;SDS011;49056;48.352;10.926;2023-03-01T04:06:04;4.80;;;2.20;;
62957;SDS011;49056;48.352;10.926;2023-03-01T04:11:25;6.10;;;3.03;;
62957;SDS011;49056;48.352;10.926;2023-03-01T04:16:48;4.93;;;2.72;;
62957;SDS011;49056;48.352;10.926;2023-03-01T04:22:08;3.85;;;2.65;;
62957;SDS011;49056;48.352;10.926;2023-03-01T04:27:34;3.67;;;2.20;;
62957;SDS011;49056;48.352;10.926;2023-03-01T04:32:54;5.37;;;2.67;;
62957;SDS011;49056;48.352;10.926;2023-03-01T04:38:15;5.32;;;3.28;;
62957;SDS011;49056;48.352;10.926;2023-03-01T04:43:36;4.55;;;2.55;;
62957;SDS011;49056;48.352;10.926;2023-03-01T04:48:57;4.37;;;2.60;;
62957;SDS011;49056;48.352;10.926;2023-03-01T04:54:17;4.93;;;2.83;;
62957;SDS011;49056;48.352;10.926;2023-03-01T04:59:38;5.25;;;3.00;;
62957;SDS011;49056;48.352;10.926;2023-03-01T05:04:58;4.05;;;2.65;;
62957;SDS011;49056;48.352;10.926;2023-03-01T05:10:18;4.33;;;2.23;;
62957;SDS011;49056;48.352;10.926;2023-03-01T05:15:39;5.40;;;2.70;;
62957;SDS011;49056;48.352;10.926;2023-03-01T05:21:04;4.67;;;2.23;;
62957;SDS011;49056;48.352;10.926;2023-03-01T05:26:24;4.68;;;3.25;;
62957;SDS011;49056;48.352;10.926;2023-03-01T05:31:48;6.43;;;2.95;;
62957;SDS011;49056;48.352;10.926;2023-03-01T05:37:09;5.53;;;2.90;;
62957;SDS011;49056;48.352;10.926;2023-03-01T05:42:29;6.05;;;3.40;;
62957;SDS011;49056;48.352;10.926;2023-03-01T05:47:50;4.12;;;2.60;;
62957;SDS011;49056;48.352;10.926;2023-03-01T05:53:15;4.43;;;2.40;;
62957;SDS011;49056;48.352;10.926;2023-03-01T05:58:36;4.95;;;2.70;;
62957;SDS011;49056;48.352;10.926;2023-03-01T06:03:58;4.53;;;3.08;;
62957;SDS011;49056;48.352;10.926;2023-03-01T06:09:18;3.42;;;2.17;;
62957;SDS011;49056;48.352;10.926;2023-03-01T06:14:39;6.03;;;3.15;;
62957;SDS011;49056;48.352;10.926;2023-03-01T06:19:59;5.22;;;2.95;;
62957;SDS011;49056;48.352;10.926;2023-03-01T06:25:21;4.80;;;3.13;;
62957;SDS011;49056;48.352;10.926;2023-03-01T06:30:41;4.12;;;2.47;;
62957;SDS011;49056;48.352;10.926;2023-03-01T06:36:02;6.07;;;2.37;;
62957;SDS011;49056;48.352;10.926;2023-03-01T06:41:23;4.20;;;2.22;;
62957;SDS011;49056;48.352;10.926;2023-03-01T06:46:43;4.03;;;2.83;;
62957;SDS011;49056;48.352;10.926;2023-03-01T06:52:03;4.93;;;3.07;;
62957;SDS011;49056;48.352;10.926;2023-03-01T06:57:24;6.28;;;3.22;;
62957;SDS011;49056;48.352;10.926;2023-03-01T07:02:44;3.70;;;2.35;;
62957;SDS011;49056;48.352;10.926;2023-03-01T07:08:05;5.78;;;3.22;;
62957;SDS011;49056;48.352;10.926;2023-03-01T07:13:25;3.85;;;2.15;;
62957;SDS011;49056;48.352;10.926;2023-03-01T07:18:45;3.97;;;2.35;;
62957;SDS011;49056;48.352;10.926;2023-03-01T07:24:06;4.62;;;2.95;;
62957;SDS011;49056;48.352;10.926;2023-03-01T07:29:27;3.95;;;2.30;;
62957;SDS011;49056;48.352;10.926;2023-03-01T07:34:50;5.82;;;2.85;;
62957;SDS011;49056;48.352;10.926;2023-03-01T07:40:11;4.80;;;3.35;;
62957;SDS011;49056;48.352;10.926;2023-03-01T07:45:32;7.15;;;3.72;;
62957;SDS011;49056;48.352;10.926;2023-03-01T07:50:52;6.35;;;2.92;;
62957;SDS011;49056;48.352;10.926;2023-03-01T07:56:13;6.70;;;3.20;;
62957;SDS011;49056;48.352;10.926;2023-03-01T08:01:33;4.53;;;3.08;;
62957;SDS011;49056;48.352;10.926;2023-03-01T08:06:54;6.60;;;4.07;;
62957;SDS011;49056;48.352;10.926;2023-03-01T08:12:15;4.68;;;2.87;;
62957;SDS011;49056;48.352;10.926;2023-03-01T08:17:36;5.97;;;3.15;;
62957;SDS011;49056;48.352;10.926;2023-03-01T08:22:57;7.62;;;4.50;;
62957;SDS011;49056;48.352;10.926;2023-03-01T08:28:18;7.15;;;3.83;;
62957;SDS011;49056;48.352;10.926;2023-03-01T08:33:38;8.73;;;4.10;;
62957;SDS011;49056;48.352;10.926;2023-03-01T08:38:59;8.00;;;3.85;;
62957;SDS011;49056;48.352;10.926;2023-03-01T08:44:19;6.20;;;4.47;;
62957;SDS011;49056;48.352;10.926;2023-03-01T08:49:41;6.07;;;3.92;;
62957;SDS011;49056;48.352;10.926;2023-03-01T08:55:01;7.43;;;4.37;;
62957;SDS011;49056;48.352;10.926;2023-03-01T09:00:22;5.82;;;4.10;;
62957;SDS011;49056;48.352;10.926;2023-03-01T09:05:43;6.90;;;3.53;;
62957;SDS011;49056;48.352;10.926;2023-03-01T09:11:06;10.10;;;5.55;;
62957;SDS011;49056;48.352;10.926;2023-03-01T09:16:27;4.80;;;3.22;;
62957;SDS011;49056;48.352;10.926;2023-03-01T09:21:49;5.95;;;3.65;;
62957;SDS011;49056;48.352;10.926;2023-03-01T09:27:13;7.57;;;4.30;;
62957;SDS011;49056;48.352;10.926;2023-03-01T09:32:34;9.90;;;4.78;;
62957;SDS011;49056;48.352;10.926;2023-03-01T09:37:55;9.30;;;4.10;;
62957;SDS011;49056;48.352;10.926;2023-03-01T09:43:17;5.25;;;2.97;;
62957;SDS011;49056;48.352;10.926;2023-03-01T09:48:49;8.32;;;4.85;;
62957;SDS011;49056;48.352;10.926;2023-03-01T09:54:10;8.13;;;3.83;;
62957;SDS011;49056;48.352;10.926;2023-03-01T10:04:55;12.98;;;5.50;;
62957;SDS011;49056;48.352;10.926;2023-03-01T10:10:59;6.90;;;4.43;;
62957;SDS011;49056;48.352;10.926;2023-03-01T10:16:21;4.68;;;2.92;;
62957;SDS011;49056;48.352;10.926;2023-03-01T10:21:44;8.50;;;4.07;;
62957;SDS011;49056;48.352;10.926;2023-03-01T10:27:07;9.85;;;5.78;;
62957;SDS011;49056;48.352;10.926;2023-03-01T10:32:29;7.43;;;4.47;;
62957;SDS011;49056;48.352;10.926;2023-03-01T10:43:26;12.32;;;6.40;;
62957;SDS011;49056;48.352;10.926;2023-03-01T10:48:51;6.25;;;3.95;;
62957;SDS011;49056;48.352;10.926;2023-03-01T10:54:26;5.12;;;3.08;;
62957;SDS011;49056;48.352;10.926;2023-03-01T10:59:47;8.30;;;3.33;;
62957;SDS011;49056;48.352;10.926;2023-03-01T11:05:21;8.43;;;4.55;;
62957;SDS011;49056;48.352;10.926;2023-03-01T11:10:43;10.98;;;5.07;;
62957;SDS011;49056;48.352;10.926;2023-03-01T11:16:07;11.07;;;4.20;;
62957;SDS011;49056;48.352;10.926;2023-03-01T11:21:30;6.40;;;3.90;;
62957;SDS011;49056;48.352;10.926;2023-03-01T11:26:53;9.38;;;4.78;;
62957;SDS011;49056;48.352;10.926;2023-03-01T11:32:14;10.10;;;5.00;;
62957;SDS011;49056;48.352;10.926;2023-03-01T11:37:36;5.12;;;2.92;;
62957;SDS011;49056;48.352;10.926;2023-03-01T11:43:05;5.45;;;3.50;;
62957;SDS011;49056;48.352;10.926;2023-03-01T11:59:23;9.15;;;4.05;;
62957;SDS011;49056;48.352;10.926;2023-03-01T12:10:19;6.95;;;3.58;;
62957;SDS011;49056;48.352;10.926;2023-03-01T12:27:11;6.00;;;3.25;;
62957;SDS011;49056;48.352;10.926;2023-03-01T12:32:45;5.10;;;3.20;;
62957;SDS011;49056;48.352;10.926;2023-03-01T12:49:21;6.30;;;3.00;;
62957;SDS011;49056;48.352;10.926;2023-03-01T12:54:43;7.07;;;4.25;;
62957;SDS011;49056;48.352;10.926;2023-03-01T13:05:34;5.93;;;2.75;;
62957;SDS011;49056;48.352;10.926;2023-03-01T13:10:59;8.30;;;3.60;;
62957;SDS011;49056;48.352;10.926;2023-03-01T13:21:47;11.03;;;5.23;;
62957;SDS011;49056;48.352;10.926;2023-03-01T13:32:29;6.00;;;3.65;;
62957;SDS011;49056;48.352;10.926;2023-03-01T13:37:52;6.10;;;3.00;;
62957;SDS011;49056;48.352;10.926;2023-03-01T13:43:29;6.55;;;3.60;;
62957;SDS011;49056;48.352;10.926;2023-03-01T13:48:51;6.68;;;4.10;;
62957;SDS011;49056;48.352;10.926;2023-03-01T13:54:12;7.18;;;3.28;;
62957;SDS011;49056;48.352;10.926;2023-03-01T13:59:34;5.65;;;2.58;;
62957;SDS011;49056;48.352;10.926;2023-03-01T14:05:08;4.00;;;2.80;;
62957;SDS011;49056;48.352;10.926;2023-03-01T14:10:32;5.15;;;3.17;;
62957;SDS011;49056;48.352;10.926;2023-03-01T14:16:01;4.37;;;1.95;;
62957;SDS011;49056;48.352;10.926;2023-03-01T14:21:24;9.38;;;3.75;;
62957;SDS011;49056;48.352;10.926;2023-03-01T14:26:46;6.20;;;3.40;;
62957;SDS011;49056;48.352;10.926;2023-03-01T14:32:10;7.57;;;2.87;;
62957;SDS011;49056;48.352;10.926;2023-03-01T14:37:32;6.95;;;3.28;;
62957;SDS011;49056;48.352;10.926;2023-03-01T14:42:53;6.47;;;3.67;;
62957;SDS011;49056;48.352;10.926;2023-03-01T14:48:15;5.82;;;2.80;;
62957;SDS011;49056;48.352;10.926;2023-03-01T14:53:35;5.53;;;2.20;;
62957;SDS011;49056;48.352;10.926;2023-03-01T14:58:57;4.62;;;2.50;;
62957;SDS011;49056;48.352;10.926;2023-03-01T15:04:18;4.82;;;2.40;;
62957;SDS011;49056;48.352;10.926;2023-03-01T15:09:40;5.37;;;2.55;;
62957;SDS011;49056;48.352;10.926;2023-03-01T15:15:06;5.93;;;3.08;;
62957;SDS011;49056;48.352;10.926;2023-03-01T15:20:39;5.80;;;2.67;;
62957;SDS011;49056;48.352;10.926;2023-03-01T15:25:59;3.62;;;1.80;;
62957;SDS011;49056;48.352;10.926;2023-03-01T15:31:21;4.50;;;2.55;;
62957;SDS011;49056;48.352;10.926;2023-03-01T15:36:43;4.00;;;2.28;;
62957;SDS011;49056;48.352;10.926;2023-03-01T15:42:05;4.40;;;2.60;;
62957;SDS011;49056;48.352;10.926;2023-03-01T15:47:26;4.57;;;2.75;;
62957;SDS011;49056;48.352;10.926;2023-03-01T15:52:47;6.50;;;3.22;;
62957;SDS011;49056;48.352;10.926;2023-03-01T15:58:18;4.40;;;2.75;;
62957;SDS011;49056;48.352;10.926;2023-03-01T16:03:40;4.68;;;2.78;;
62957;SDS011;49056;48.352;10.926;2023-03-01T16:09:01;4.40;;;2.80;;
62957;SDS011;49056;48.352;10.926;2023-03-01T16:14:22;4.00;;;1.90;;
62957;SDS011;49056;48.352;10.926;2023-03-01T16:19:42;4.43;;;2.00;;
62957;SDS011;49056;48.352;10.926;2023-03-01T16:25:03;6.67;;;2.87;;
62957;SDS011;49056;48.352;10.926;2023-03-01T16:30:23;4.65;;;2.33;;
62957;SDS011;49056;48.352;10.926;2023-03-01T16:35:44;4.87;;;2.33;;
62957;SDS011;49056;48.352;10.926;2023-03-01T16:41:04;6.12;;;2.08;;
62957;SDS011;49056;48.352;10.926;2023-03-01T16:46:26;3.10;;;1.57;;
62957;SDS011;49056;48.352;10.926;2023-03-01T16:51:47;3.15;;;1.95;;
62957;SDS011;49056;48.352;10.926;2023-03-01T16:57:07;3.72;;;1.80;;
62957;SDS011;49056;48.352;10.926;2023-03-01T17:02:28;3.58;;;1.70;;
62957;SDS011;49056;48.352;10.926;2023-03-01T17:07:48;3.47;;;2.17;;
62957;SDS011;49056;48.352;10.926;2023-03-01T17:13:09;4.00;;;2.35;;
62957;SDS011;49056;48.352;10.926;2023-03-01T17:18:30;3.62;;;1.52;;
62957;SDS011;49056;48.352;10.926;2023-03-01T17:23:54;6.05;;;2.30;;
62957;SDS011;49056;48.352;10.926;2023-03-01T17:29:15;4.20;;;1.67;;
62957;SDS011;49056;48.352;10.926;2023-03-01T17:34:37;4.62;;;2.08;;
62957;SDS011;49056;48.352;10.926;2023-03-01T17:39:58;5.32;;;1.87;;
62957;SDS011;49056;48.352;10.926;2023-03-01T17:45:18;4.70;;;2.57;;
62957;SDS011;49056;48.352;10.926;2023-03-01T17:50:38;4.60;;;2.50;;
62957;SDS011;49056;48.352;10.926;2023-03-01T17:56:03;4.57;;;2.03;;
62957;SDS011;49056;48.352;10.926;2023-03-01T18:01:23;3.92;;;2.03;;
62957;SDS011;49056;48.352;10.926;2023-03-01T18:06:44;4.17;;;2.10;;
62957;SDS011;49056;48.352;10.926;2023-03-01T18:12:04;4.70;;;1.97;;
62957;SDS011;49056;48.352;10.926;2023-03-01T18:17:25;5.00;;;2.28;;
62957;SDS011;49056;48.352;10.926;2023-03-01T18:22:46;3.85;;;2.20;;
62957;SDS011;49056;48.352;10.926;2023-03-01T18:28:07;5.00;;;2.80;;
62957;SDS011;49056;48.352;10.926;2023-03-01T18:33:28;5.93;;;2.12;;
62957;SDS011;49056;48.352;10.926;2023-03-01T18:38:49;5.37;;;2.20;;
62957;SDS011;49056;48.352;10.926;2023-03-01T18:44:09;6.32;;;2.75;;
62957;SDS011;49056;48.352;10.926;2023-03-01T18:49:30;3.95;;;2.37;;
62957;SDS011;49056;48.352;10.926;2023-03-01T18:54:50;4.13;;;2.60;;
62957;SDS011;49056;48.352;10.926;2023-03-01T19:00:11;3.47;;;2.33;;
62957;SDS011;49056;48.352;10.926;2023-03-01T19:05:31;4.70;;;2.40;;
62957;SDS011;49056;48.352;10.926;2023-03-01T19:10:58;3.95;;;2.12;;
62957;SDS011;49056;48.352;10.926;2023-03-01T19:16:20;4.28;;;2.42;;
62957;SDS011;49056;48.352;10.926;2023-03-01T19:21:40;6.22;;;2.55;;
62957;SDS011;49056;48.352;10.926;2023-03-01T19:27:00;4.80;;;2.85;;
62957;SDS011;49056;48.352;10.926;2023-03-01T19:32:21;5.20;;;2.87;;
62957;SDS011;49056;48.352;10.926;2023-03-01T19:37:41;3.47;;;2.22;;
62957;SDS011;49056;48.352;10.926;2023-03-01T19:43:01;6.00;;;2.62;;
62957;SDS011;49056;48.352;10.926;2023-03-01T19:48:22;4.43;;;3.00;;
62957;SDS011;49056;48.352;10.926;2023-03-01T19:53:42;5.50;;;3.23;;
62957;SDS011;49056;48.352;10.926;2023-03-01T19:59:02;4.62;;;2.60;;
62957;SDS011;49056;48.352;10.926;2023-03-01T20:04:23;4.45;;;2.58;;
62957;SDS011;49056;48.352;10.926;2023-03-01T20:09:43;5.47;;;3.28;;
62957;SDS011;49056;48.352;10.926;2023-03-01T20:15:05;5.05;;;3.53;;
62957;SDS011;49056;48.352;10.926;2023-03-01T20:20:25;5.20;;;2.53;;
62957;SDS011;49056;48.352;10.926;2023-03-01T20:25:46;5.75;;;2.95;;
62957;SDS011;49056;48.352;10.926;2023-03-01T20:31:10;6.20;;;3.33;;
62957;SDS011;49056;48.352;10.926;2023-03-01T20:36:30;6.15;;;3.20;;
62957;SDS011;49056;48.352;10.926;2023-03-01T20:41:51;4.80;;;2.92;;
62957;SDS011;49056;48.352;10.926;2023-03-01T20:47:11;9.07;;;3.35;;
62957;SDS011;49056;48.352;10.926;2023-03-01T20:52:31;5.57;;;3.23;;
62957;SDS011;49056;48.352;10.926;2023-03-01T20:57:52;5.40;;;3.25;;
62957;SDS011;49056;48.352;10.926;2023-03-01T21:03:12;7.18;;;2.90;;
62957;SDS011;49056;48.352;10.926;2023-03-01T21:08:33;5.18;;;2.67;;
62957;SDS011;49056;48.352;10.926;2023-03-01T21:13:54;5.80;;;2.92;;
62957;SDS011;49056;48.352;10.926;2023-03-01T21:19:15;4.85;;;2.83;;
62957;SDS011;49056;48.352;10.926;2023-03-01T21:24:35;3.85;;;2.78;;
62957;SDS011;49056;48.352;10.926;2023-03-01T21:29:55;7.65;;;3.37;;
62957;SDS011;49056;48.352;10.926;2023-03-01T21:35:16;4.70;;;2.70;;
62957;SDS011;49056;48.352;10.926;2023-03-01T21:40:36;5.22;;;3.08;;
62957;SDS011;49056;48.352;10.926;2023-03-01T21:45:59;5.55;;;2.58;;
62957;SDS011;49056;48.352;10.926;2023-03-01T21:51:21;4.75;;;2.75;;
62957;SDS011;49056;48.352;10.926;2023-03-01T21:56:41;5.87;;;2.80;;
62957;SDS011;49056;48.352;10.926;2023-03-01T22:02:02;5.00;;;2.83;;
62957;SDS011;49056;48.352;10.926;2023-03-01T22:07:22;6.82;;;3.10;;
62957;SDS011;49056;48.352;10.926;2023-03-01T22:12:43;3.45;;;1.80;;
62957;SDS011;49056;48.352;10.926;2023-03-01T22:18:03;4.70;;;2.60;;
62957;SDS011;49056;48.352;10.926;2023-03-01T22:23:23;5.60;;;2.80;;
62957;SDS011;49056;48.352;10.926;2023-03-01T22:28:44;4.28;;;2.08;;
62957;SDS011;49056;48.352;10.926;2023-03-01T22:34:04;6.30;;;3.15;;
62957;SDS011;49056;48.352;10.926;2023-03-01T22:39:25;6.03;;;2.65;;
62957;SDS011;49056;48.352;10.926;2023-03-01T22:44:45;5.70;;;2.87;;
62957;SDS011;49056;48.352;10.926;2023-03-01T22:50:06;3.57;;;2.57;;
62957;SDS011;49056;48.352;10.926;2023-03-01T22:55:27;4.60;;;2.70;;
62957;SDS011;49056;48.352;10.926;2023-03-01T23:00:48;5.35;;;2.70;;
62957;SDS011;49056;48.352;10.926;2023-03-01T23:06:09;4.25;;;2.80;;
62957;SDS011;49056;48.352;10.926;2023-03-01T23:11:30;3.92;;;2.60;;
62957;SDS011;49056;48.352;10.926;2023-03-01T23:16:50;6.67;;;3.23;;
62957;SDS011;49056;48.352;10.926;2023-03-01T23:22:11;3.72;;;2.42;;
62957;SDS011;49056;48.352;10.926;2023-03-01T23:27:31;3.97;;;2.72;;
62957;SDS011;49056;48.352;10.926;2023-03-01T23:32:51;4.97;;;2.50;;
62957;SDS011;49056;48.352;10.926;2023-03-01T23:38:12;4.40;;;2.60;;
62957;SDS011;49056;48.352;10.926;2023-03-01T23:43:32;5.37;;;2.53;;
62957;SDS011;49056;48.352;10.926;2023-03-01T23:48:53;6.73;;;3.27;;
62957;SDS011;49056;48.352;10.926;2023-03-01T23:54:14;3.58;;;2.12;;
62957;SDS011;49056;48.352;10.926;2023-03-01T23:59:35;4.87;;;2.42;;
